sensor_id;sensor_type;location;lat;lon;timestamp;temperature;humidity
44305;DHT22;30019;50.576;8.568;2023-04-30T00:00:36;8.30;99.90
44305;DHT22;30019;50.576;8.568;2023-04-30T00:03:13;8.20;99.90
44305;DHT22;30019;50.576;8.568;2023-04-30T00:06:06;8.20;99.90
44305;DHT22;30019;50.576;8.568;2023-04-30T00:09:05;8.20;99.90
44305;DHT22;30019;50.576;8.568;2023-04-30T00:11:33;8.20;99.90
44305;DHT22;30019;50.576;8.568;2023-04-30T00:13:59;8.10;99.90
44305;DHT22;30019;50.576;8.568;2023-04-30T00:16:24;8.00;99.90
44305;DHT22;30019;50.576;8.568;2023-04-30T00:18:50;7.90;99.90
44305;DHT22;30019;50.576;8.568;2023-04-30T00:21:16;7.80;99.90
44305;DHT22;30019;50.576;8.568;2023-04-30T00:23:44;7.70;99.90
44305;DHT22;30019;50.576;8.568;2023-04-30T00:26:19;7.60;99.90
44305;DHT22;30019;50.576;8.568;2023-04-30T00:28:54;7.60;99.90
44305;DHT22;30019;50.576;8.568;2023-04-30T00:31:35;7.60;99.90
44305;DHT22;30019;50.576;8.568;2023-04-30T00:34:25;7.50;99.90
44305;DHT22;30019;50.576;8.568;2023-04-30T00:36:53;7.40;99.90
44305;DHT22;30019;50.576;8.568;2023-04-30T00:39:26;7.40;99.90
44305;DHT22;30019;50.576;8.568;2023-04-30T00:45:16;7.30;99.90
44305;DHT22;30019;50.576;8.568;2023-04-30T00:47:49;7.20;99.90
44305;DHT22;30019;50.576;8.568;2023-04-30T00:50:16;7.20;99.90
44305;DHT22;30019;50.576;8.568;2023-04-30T00:53:12;7.10;99.90
44305;DHT22;30019;50.576;8.568;2023-04-30T00:56:19;7.10;99.90
44305;DHT22;30019;50.576;8.568;2023-04-30T00:58:48;7.00;99.90
44305;DHT22;30019;50.576;8.568;2023-04-30T01:01:23;6.90;99.90
44305;DHT22;30019;50.576;8.568;2023-04-30T01:03:52;6.90;99.90
44305;DHT22;30019;50.576;8.568;2023-04-30T01:06:21;6.80;99.90
44305;DHT22;30019;50.576;8.568;2023-04-30T01:08:51;6.80;99.90
44305;DHT22;30019;50.576;8.568;2023-04-30T01:14:39;6.70;99.90
44305;DHT22;30019;50.576;8.568;2023-04-30T01:17:22;6.70;99.90
44305;DHT22;30019;50.576;8.568;2023-04-30T01:20:11;6.70;99.90
44305;DHT22;30019;50.576;8.568;2023-04-30T01:23:00;6.70;99.90
44305;DHT22;30019;50.576;8.568;2023-04-30T01:28:08;6.70;99.90
44305;DHT22;30019;50.576;8.568;2023-04-30T01:30:36;6.50;99.90
44305;DHT22;30019;50.576;8.568;2023-04-30T01:33:02;6.50;99.90
44305;DHT22;30019;50.576;8.568;2023-04-30T01:35:34;6.40;99.90
44305;DHT22;30019;50.576;8.568;2023-04-30T01:38:19;6.40;99.90
44305;DHT22;30019;50.576;8.568;2023-04-30T01:40:52;6.40;99.90
44305;DHT22;30019;50.576;8.568;2023-04-30T01:48:52;6.30;99.90
44305;DHT22;30019;50.576;8.568;2023-04-30T01:51:21;6.30;99.90
44305;DHT22;30019;50.576;8.568;2023-04-30T01:53:49;6.20;99.90
44305;DHT22;30019;50.576;8.568;2023-04-30T01:56:20;6.20;99.90
44305;DHT22;30019;50.576;8.568;2023-04-30T01:58:47;6.20;99.90
44305;DHT22;30019;50.576;8.568;2023-04-30T02:01:26;6.20;99.90
44305;DHT22;30019;50.576;8.568;2023-04-30T02:03:53;6.10;99.90
44305;DHT22;30019;50.576;8.568;2023-04-30T02:06:18;6.10;99.90
44305;DHT22;30019;50.576;8.568;2023-04-30T02:08:44;6.00;99.90
44305;DHT22;30019;50.576;8.568;2023-04-30T02:11:09;6.00;99.90
44305;DHT22;30019;50.576;8.568;2023-04-30T02:13:35;6.00;99.90
44305;DHT22;30019;50.576;8.568;2023-04-30T02:16:01;6.00;99.90
44305;DHT22;30019;50.576;8.568;2023-04-30T02:18:26;5.90;99.90
44305;DHT22;30019;50.576;8.568;2023-04-30T02:20:51;6.00;99.90
44305;DHT22;30019;50.576;8.568;2023-04-30T02:23:17;6.10;99.90
44305;DHT22;30019;50.576;8.568;2023-04-30T02:25:42;6.00;99.90
44305;DHT22;30019;50.576;8.568;2023-04-30T02:28:08;6.00;99.90
44305;DHT22;30019;50.576;8.568;2023-04-30T02:30:34;6.00;99.90
44305;DHT22;30019;50.576;8.568;2023-04-30T02:32:59;5.90;99.90
44305;DHT22;30019;50.576;8.568;2023-04-30T02:35:26;5.90;99.90
44305;DHT22;30019;50.576;8.568;2023-04-30T02:37:51;5.90;99.90
44305;DHT22;30019;50.576;8.568;2023-04-30T02:40:17;5.80;99.90
44305;DHT22;30019;50.576;8.568;2023-04-30T02:42:42;5.90;99.90
44305;DHT22;30019;50.576;8.568;2023-04-30T02:45:08;5.90;99.90
44305;DHT22;30019;50.576;8.568;2023-04-30T02:47:33;5.80;99.90
44305;DHT22;30019;50.576;8.568;2023-04-30T02:49:59;5.60;99.90
44305;DHT22;30019;50.576;8.568;2023-04-30T02:52:24;5.60;99.90
44305;DHT22;30019;50.576;8.568;2023-04-30T02:54:50;5.50;99.90
44305;DHT22;30019;50.576;8.568;2023-04-30T02:57:16;5.50;99.90
44305;DHT22;30019;50.576;8.568;2023-04-30T02:59:41;5.50;99.90
44305;DHT22;30019;50.576;8.568;2023-04-30T03:02:10;5.50;99.90
44305;DHT22;30019;50.576;8.568;2023-04-30T03:04:35;5.50;99.90
44305;DHT22;30019;50.576;8.568;2023-04-30T03:07:01;5.40;99.90
44305;DHT22;30019;50.576;8.568;2023-04-30T03:09:29;5.40;99.90
44305;DHT22;30019;50.576;8.568;2023-04-30T03:11:54;5.40;99.90
44305;DHT22;30019;50.576;8.568;2023-04-30T03:14:20;5.40;99.90
44305;DHT22;30019;50.576;8.568;2023-04-30T03:16:45;5.40;99.90
44305;DHT22;30019;50.576;8.568;2023-04-30T03:19:10;5.40;99.90
44305;DHT22;30019;50.576;8.568;2023-04-30T03:21:36;5.40;99.90
44305;DHT22;30019;50.576;8.568;2023-04-30T03:24:01;5.50;99.90
44305;DHT22;30019;50.576;8.568;2023-04-30T03:26:27;5.40;99.90
44305;DHT22;30019;50.576;8.568;2023-04-30T03:28:53;5.50;99.90
44305;DHT22;30019;50.576;8.568;2023-04-30T03:31:19;5.50;99.90
44305;DHT22;30019;50.576;8.568;2023-04-30T03:33:45;5.40;99.90
44305;DHT22;30019;50.576;8.568;2023-04-30T03:36:11;5.40;99.90
44305;DHT22;30019;50.576;8.568;2023-04-30T03:38:37;5.40;99.90
44305;DHT22;30019;50.576;8.568;2023-04-30T03:41:02;5.40;99.90
44305;DHT22;30019;50.576;8.568;2023-04-30T03:43:28;5.40;99.90
44305;DHT22;30019;50.576;8.568;2023-04-30T03:45:53;5.40;99.90
44305;DHT22;30019;50.576;8.568;2023-04-30T03:48:19;5.30;99.90
44305;DHT22;30019;50.576;8.568;2023-04-30T03:50:44;5.40;99.90
44305;DHT22;30019;50.576;8.568;2023-04-30T03:53:10;5.40;99.90
44305;DHT22;30019;50.576;8.568;2023-04-30T03:55:36;5.30;99.90
44305;DHT22;30019;50.576;8.568;2023-04-30T03:58:01;5.30;99.90
44305;DHT22;30019;50.576;8.568;2023-04-30T04:00:27;5.30;99.90
44305;DHT22;30019;50.576;8.568;2023-04-30T04:02:53;5.30;99.90
44305;DHT22;30019;50.576;8.568;2023-04-30T04:05:19;5.30;99.90
44305;DHT22;30019;50.576;8.568;2023-04-30T04:07:44;5.20;99.90
44305;DHT22;30019;50.576;8.568;2023-04-30T04:10:10;5.10;99.90
44305;DHT22;30019;50.576;8.568;2023-04-30T04:12:35;5.20;99.90
44305;DHT22;30019;50.576;8.568;2023-04-30T04:15:01;5.10;99.90
44305;DHT22;30019;50.576;8.568;2023-04-30T04:17:26;5.10;99.90
44305;DHT22;30019;50.576;8.568;2023-04-30T04:19:52;5.10;99.90
44305;DHT22;30019;50.576;8.568;2023-04-30T04:22:17;5.00;99.90
44305;DHT22;30019;50.576;8.568;2023-04-30T04:24:43;5.10;99.90
44305;DHT22;30019;50.576;8.568;2023-04-30T04:27:08;5.10;99.90
44305;DHT22;30019;50.576;8.568;2023-04-30T04:29:34;5.10;99.90
44305;DHT22;30019;50.576;8.568;2023-04-30T04:32:00;5.00;99.90
44305;DHT22;30019;50.576;8.568;2023-04-30T04:34:27;5.00;99.90
44305;DHT22;30019;50.576;8.568;2023-04-30T04:36:52;5.00;99.90
44305;DHT22;30019;50.576;8.568;2023-04-30T04:39:17;5.00;99.90
44305;DHT22;30019;50.576;8.568;2023-04-30T04:41:43;5.10;99.90
44305;DHT22;30019;50.576;8.568;2023-04-30T04:44:08;5.10;99.90
44305;DHT22;30019;50.576;8.568;2023-04-30T04:46:34;5.10;99.90
44305;DHT22;30019;50.576;8.568;2023-04-30T04:49:02;5.10;99.90
44305;DHT22;30019;50.576;8.568;2023-04-30T04:51:28;5.10;99.90
44305;DHT22;30019;50.576;8.568;2023-04-30T04:53:53;5.20;99.90
44305;DHT22;30019;50.576;8.568;2023-04-30T04:56:19;5.30;99.90
44305;DHT22;30019;50.576;8.568;2023-04-30T04:58:45;5.40;99.90
44305;DHT22;30019;50.576;8.568;2023-04-30T05:01:11;5.50;99.90
44305;DHT22;30019;50.576;8.568;2023-04-30T05:03:37;5.50;99.90
44305;DHT22;30019;50.576;8.568;2023-04-30T05:06:03;5.50;99.90
44305;DHT22;30019;50.576;8.568;2023-04-30T05:08:29;5.50;99.90
44305;DHT22;30019;50.576;8.568;2023-04-30T05:10:54;5.60;99.90
44305;DHT22;30019;50.576;8.568;2023-04-30T05:13:20;5.70;99.90
44305;DHT22;30019;50.576;8.568;2023-04-30T05:15:45;5.70;99.90
44305;DHT22;30019;50.576;8.568;2023-04-30T05:18:11;5.70;99.90
44305;DHT22;30019;50.576;8.568;2023-04-30T05:20:36;5.80;99.90
44305;DHT22;30019;50.576;8.568;2023-04-30T05:23:02;5.80;99.90
44305;DHT22;30019;50.576;8.568;2023-04-30T05:25:27;5.90;99.90
44305;DHT22;30019;50.576;8.568;2023-04-30T05:27:54;6.00;99.90
44305;DHT22;30019;50.576;8.568;2023-04-30T05:30:20;6.10;99.90
44305;DHT22;30019;50.576;8.568;2023-04-30T05:32:46;6.10;99.90
44305;DHT22;30019;50.576;8.568;2023-04-30T05:35:15;6.20;99.90
44305;DHT22;30019;50.576;8.568;2023-04-30T05:37:41;6.30;99.90
44305;DHT22;30019;50.576;8.568;2023-04-30T05:40:06;6.40;99.90
44305;DHT22;30019;50.576;8.568;2023-04-30T05:42:32;6.40;99.90
44305;DHT22;30019;50.576;8.568;2023-04-30T05:44:57;6.50;99.90
44305;DHT22;30019;50.576;8.568;2023-04-30T05:47:23;6.60;99.90
44305;DHT22;30019;50.576;8.568;2023-04-30T05:49:48;6.70;99.90
44305;DHT22;30019;50.576;8.568;2023-04-30T05:52:14;6.90;99.90
44305;DHT22;30019;50.576;8.568;2023-04-30T05:54:41;7.10;99.90
44305;DHT22;30019;50.576;8.568;2023-04-30T05:57:07;7.20;99.90
44305;DHT22;30019;50.576;8.568;2023-04-30T05:59:32;7.10;99.90
44305;DHT22;30019;50.576;8.568;2023-04-30T06:01:58;7.10;99.90
44305;DHT22;30019;50.576;8.568;2023-04-30T06:04:23;7.10;99.90
44305;DHT22;30019;50.576;8.568;2023-04-30T06:06:48;7.10;99.90
44305;DHT22;30019;50.576;8.568;2023-04-30T06:09:14;7.10;99.90
44305;DHT22;30019;50.576;8.568;2023-04-30T06:11:40;7.20;99.90
44305;DHT22;30019;50.576;8.568;2023-04-30T06:14:06;7.30;99.90
44305;DHT22;30019;50.576;8.568;2023-04-30T06:16:31;7.50;99.90
44305;DHT22;30019;50.576;8.568;2023-04-30T06:18:56;7.60;99.90
44305;DHT22;30019;50.576;8.568;2023-04-30T06:21:22;7.70;99.90
44305;DHT22;30019;50.576;8.568;2023-04-30T07:37:00;10.60;99.90
44305;DHT22;30019;50.576;8.568;2023-04-30T07:39:27;10.60;99.90
44305;DHT22;30019;50.576;8.568;2023-04-30T07:41:52;10.80;99.90
44305;DHT22;30019;50.576;8.568;2023-04-30T07:44:21;10.80;99.90
44305;DHT22;30019;50.576;8.568;2023-04-30T07:47:10;10.80;99.90
44305;DHT22;30019;50.576;8.568;2023-04-30T07:49:36;11.00;99.90
44305;DHT22;30019;50.576;8.568;2023-04-30T07:52:01;11.10;99.90
44305;DHT22;30019;50.576;8.568;2023-04-30T07:54:27;11.30;99.90
44305;DHT22;30019;50.576;8.568;2023-04-30T07:56:53;11.30;99.90
44305;DHT22;30019;50.576;8.568;2023-04-30T07:59:20;11.80;99.90
44305;DHT22;30019;50.576;8.568;2023-04-30T08:01:55;12.60;99.90
44305;DHT22;30019;50.576;8.568;2023-04-30T08:04:20;13.50;99.90
44305;DHT22;30019;50.576;8.568;2023-04-30T08:06:46;13.40;99.90
44305;DHT22;30019;50.576;8.568;2023-04-30T08:09:11;13.90;99.90
44305;DHT22;30019;50.576;8.568;2023-04-30T08:11:42;14.60;99.90
44305;DHT22;30019;50.576;8.568;2023-04-30T08:14:17;14.60;99.90
44305;DHT22;30019;50.576;8.568;2023-04-30T08:16:43;14.50;99.90
44305;DHT22;30019;50.576;8.568;2023-04-30T08:19:08;14.90;99.90
44305;DHT22;30019;50.576;8.568;2023-04-30T08:21:34;14.60;99.90
44305;DHT22;30019;50.576;8.568;2023-04-30T08:24:00;15.10;99.90
44305;DHT22;30019;50.576;8.568;2023-04-30T08:26:25;15.30;99.90
44305;DHT22;30019;50.576;8.568;2023-04-30T08:28:51;15.50;99.90
44305;DHT22;30019;50.576;8.568;2023-04-30T08:31:17;15.90;99.90
44305;DHT22;30019;50.576;8.568;2023-04-30T08:33:42;15.50;99.90
44305;DHT22;30019;50.576;8.568;2023-04-30T08:36:08;15.40;99.90
44305;DHT22;30019;50.576;8.568;2023-04-30T08:38:33;15.40;99.90
44305;DHT22;30019;50.576;8.568;2023-04-30T08:41:10;15.70;99.90
44305;DHT22;30019;50.576;8.568;2023-04-30T08:43:35;15.80;99.90
44305;DHT22;30019;50.576;8.568;2023-04-30T08:46:02;16.00;99.90
44305;DHT22;30019;50.576;8.568;2023-04-30T08:48:28;15.90;99.90
44305;DHT22;30019;50.576;8.568;2023-04-30T08:50:54;15.60;99.90
44305;DHT22;30019;50.576;8.568;2023-04-30T08:53:19;15.40;99.90
44305;DHT22;30019;50.576;8.568;2023-04-30T08:55:46;14.90;99.90
44305;DHT22;30019;50.576;8.568;2023-04-30T08:58:11;14.60;99.90
44305;DHT22;30019;50.576;8.568;2023-04-30T09:00:37;14.60;99.90
44305;DHT22;30019;50.576;8.568;2023-04-30T09:03:03;14.90;99.90
44305;DHT22;30019;50.576;8.568;2023-04-30T09:05:29;14.70;99.90
44305;DHT22;30019;50.576;8.568;2023-04-30T09:07:55;14.90;99.90
44305;DHT22;30019;50.576;8.568;2023-04-30T09:10:21;15.10;99.90
44305;DHT22;30019;50.576;8.568;2023-04-30T09:12:57;15.20;99.90
44305;DHT22;30019;50.576;8.568;2023-04-30T09:15:22;15.20;99.90
44305;DHT22;30019;50.576;8.568;2023-04-30T09:17:48;15.30;99.90
44305;DHT22;30019;50.576;8.568;2023-04-30T09:20:13;15.00;99.90
44305;DHT22;30019;50.576;8.568;2023-04-30T09:22:40;15.10;99.90
44305;DHT22;30019;50.576;8.568;2023-04-30T09:25:06;15.00;99.90
44305;DHT22;30019;50.576;8.568;2023-04-30T09:27:32;14.70;99.90
44305;DHT22;30019;50.576;8.568;2023-04-30T09:29:57;14.80;99.90
44305;DHT22;30019;50.576;8.568;2023-04-30T09:32:23;14.40;99.90
44305;DHT22;30019;50.576;8.568;2023-04-30T09:34:49;14.60;99.90
44305;DHT22;30019;50.576;8.568;2023-04-30T09:37:14;14.80;99.90
44305;DHT22;30019;50.576;8.568;2023-04-30T09:39:50;15.10;99.90
44305;DHT22;30019;50.576;8.568;2023-04-30T09:42:15;15.30;99.90
44305;DHT22;30019;50.576;8.568;2023-04-30T09:44:42;15.60;99.90
44305;DHT22;30019;50.576;8.568;2023-04-30T09:47:11;15.90;99.90
44305;DHT22;30019;50.576;8.568;2023-04-30T09:49:39;16.10;99.90
44305;DHT22;30019;50.576;8.568;2023-04-30T09:52:05;16.00;99.90
44305;DHT22;30019;50.576;8.568;2023-04-30T09:57:35;16.00;99.90
44305;DHT22;30019;50.576;8.568;2023-04-30T10:00:34;16.60;99.90
44305;DHT22;30019;50.576;8.568;2023-04-30T10:03:35;16.70;99.90
44305;DHT22;30019;50.576;8.568;2023-04-30T10:06:01;17.10;99.50
44305;DHT22;30019;50.576;8.568;2023-04-30T10:08:31;17.70;99.60
44305;DHT22;30019;50.576;8.568;2023-04-30T10:11:01;17.90;97.40
44305;DHT22;30019;50.576;8.568;2023-04-30T10:22:41;18.20;94.00
44305;DHT22;30019;50.576;8.568;2023-04-30T10:38:15;19.30;91.60
44305;DHT22;30019;50.576;8.568;2023-04-30T10:40:46;19.60;90.70
44305;DHT22;30019;50.576;8.568;2023-04-30T10:53:01;19.80;90.10
44305;DHT22;30019;50.576;8.568;2023-04-30T10:58:53;19.70;87.10
44305;DHT22;30019;50.576;8.568;2023-04-30T11:01:20;21.00;81.00
44305;DHT22;30019;50.576;8.568;2023-04-30T11:09:40;20.60;85.90
44305;DHT22;30019;50.576;8.568;2023-04-30T11:12:09;20.40;78.90
44305;DHT22;30019;50.576;8.568;2023-04-30T11:14:40;20.10;85.30
44305;DHT22;30019;50.576;8.568;2023-04-30T11:17:06;20.70;81.70
44305;DHT22;30019;50.576;8.568;2023-04-30T11:19:31;21.20;87.60
44305;DHT22;30019;50.576;8.568;2023-04-30T11:27:37;20.00;87.10
44305;DHT22;30019;50.576;8.568;2023-04-30T11:30:12;20.20;87.00
44305;DHT22;30019;50.576;8.568;2023-04-30T11:32:40;21.30;85.00
44305;DHT22;30019;50.576;8.568;2023-04-30T11:35:06;21.00;84.00
44305;DHT22;30019;50.576;8.568;2023-04-30T11:37:36;21.40;80.50
44305;DHT22;30019;50.576;8.568;2023-04-30T11:40:02;21.40;84.60
44305;DHT22;30019;50.576;8.568;2023-04-30T11:42:29;21.00;84.70
44305;DHT22;30019;50.576;8.568;2023-04-30T11:45:07;20.50;81.80
44305;DHT22;30019;50.576;8.568;2023-04-30T11:47:51;21.00;81.90
44305;DHT22;30019;50.576;8.568;2023-04-30T11:50:19;21.10;78.60
44305;DHT22;30019;50.576;8.568;2023-04-30T11:52:54;20.20;86.40
44305;DHT22;30019;50.576;8.568;2023-04-30T11:55:21;20.00;79.60
44305;DHT22;30019;50.576;8.568;2023-04-30T11:57:50;20.60;83.80
44305;DHT22;30019;50.576;8.568;2023-04-30T12:00:21;21.10;85.00
44305;DHT22;30019;50.576;8.568;2023-04-30T12:02:47;21.10;83.00
44305;DHT22;30019;50.576;8.568;2023-04-30T12:05:20;21.60;81.40
44305;DHT22;30019;50.576;8.568;2023-04-30T12:07:46;20.60;78.30
44305;DHT22;30019;50.576;8.568;2023-04-30T12:10:13;21.20;82.70
44305;DHT22;30019;50.576;8.568;2023-04-30T12:12:38;22.70;78.90
44305;DHT22;30019;50.576;8.568;2023-04-30T12:15:11;21.80;80.10
44305;DHT22;30019;50.576;8.568;2023-04-30T12:17:38;21.20;77.50
44305;DHT22;30019;50.576;8.568;2023-04-30T12:20:05;20.80;82.00
44305;DHT22;30019;50.576;8.568;2023-04-30T12:22:30;20.90;80.40
44305;DHT22;30019;50.576;8.568;2023-04-30T12:24:57;20.10;84.50
44305;DHT22;30019;50.576;8.568;2023-04-30T12:27:23;19.90;85.80
44305;DHT22;30019;50.576;8.568;2023-04-30T12:30:04;19.30;85.40
44305;DHT22;30019;50.576;8.568;2023-04-30T12:32:52;18.90;85.40
44305;DHT22;30019;50.576;8.568;2023-04-30T12:35:19;19.70;82.90
44305;DHT22;30019;50.576;8.568;2023-04-30T12:38:05;19.80;85.90
44305;DHT22;30019;50.576;8.568;2023-04-30T12:40:31;19.50;82.80
44305;DHT22;30019;50.576;8.568;2023-04-30T12:43:01;19.30;85.60
44305;DHT22;30019;50.576;8.568;2023-04-30T12:48:25;19.20;82.60
44305;DHT22;30019;50.576;8.568;2023-04-30T12:50:53;18.90;84.60
44305;DHT22;30019;50.576;8.568;2023-04-30T12:53:19;18.70;84.00
44305;DHT22;30019;50.576;8.568;2023-04-30T12:58:38;19.10;83.80
44305;DHT22;30019;50.576;8.568;2023-04-30T13:01:04;18.80;81.00
44305;DHT22;30019;50.576;8.568;2023-04-30T13:03:30;19.20;84.80
44305;DHT22;30019;50.576;8.568;2023-04-30T13:05:55;19.90;83.90
44305;DHT22;30019;50.576;8.568;2023-04-30T13:08:22;20.40;79.50
44305;DHT22;30019;50.576;8.568;2023-04-30T13:10:48;19.60;79.20
44305;DHT22;30019;50.576;8.568;2023-04-30T13:13:14;19.00;85.40
44305;DHT22;30019;50.576;8.568;2023-04-30T13:15:41;18.50;84.60
44305;DHT22;30019;50.576;8.568;2023-04-30T13:18:19;18.70;80.50
44305;DHT22;30019;50.576;8.568;2023-04-30T13:20:45;19.30;88.30
44305;DHT22;30019;50.576;8.568;2023-04-30T13:23:11;19.60;86.00
44305;DHT22;30019;50.576;8.568;2023-04-30T13:25:37;19.30;82.90
44305;DHT22;30019;50.576;8.568;2023-04-30T13:28:03;19.20;85.90
44305;DHT22;30019;50.576;8.568;2023-04-30T13:30:28;19.80;83.70
44305;DHT22;30019;50.576;8.568;2023-04-30T13:32:54;20.10;87.20
44305;DHT22;30019;50.576;8.568;2023-04-30T13:35:20;20.10;83.70
44305;DHT22;30019;50.576;8.568;2023-04-30T13:37:49;19.70;78.30
44305;DHT22;30019;50.576;8.568;2023-04-30T13:40:17;19.10;80.90
44305;DHT22;30019;50.576;8.568;2023-04-30T13:42:43;19.20;84.60
44305;DHT22;30019;50.576;8.568;2023-04-30T13:45:09;19.30;84.00
44305;DHT22;30019;50.576;8.568;2023-04-30T13:47:35;19.10;80.60
44305;DHT22;30019;50.576;8.568;2023-04-30T13:50:02;19.70;82.30
44305;DHT22;30019;50.576;8.568;2023-04-30T13:52:27;19.60;83.20
44305;DHT22;30019;50.576;8.568;2023-04-30T13:54:53;19.60;85.50
44305;DHT22;30019;50.576;8.568;2023-04-30T13:57:18;19.70;82.10
44305;DHT22;30019;50.576;8.568;2023-04-30T13:59:44;19.50;80.50
44305;DHT22;30019;50.576;8.568;2023-04-30T14:02:12;19.10;82.10
44305;DHT22;30019;50.576;8.568;2023-04-30T14:04:37;19.20;82.60
44305;DHT22;30019;50.576;8.568;2023-04-30T14:07:03;18.80;80.40
44305;DHT22;30019;50.576;8.568;2023-04-30T14:28:07;20.40;78.90
44305;DHT22;30019;50.576;8.568;2023-04-30T14:46:45;19.90;80.80
44305;DHT22;30019;50.576;8.568;2023-04-30T14:49:12;20.20;82.00
44305;DHT22;30019;50.576;8.568;2023-04-30T14:52:23;20.30;75.40
44305;DHT22;30019;50.576;8.568;2023-04-30T14:54:49;20.70;79.90
44305;DHT22;30019;50.576;8.568;2023-04-30T14:57:15;20.40;77.30
44305;DHT22;30019;50.576;8.568;2023-04-30T14:59:41;19.70;80.70
44305;DHT22;30019;50.576;8.568;2023-04-30T15:02:06;19.70;81.30
44305;DHT22;30019;50.576;8.568;2023-04-30T15:04:32;19.50;82.50
44305;DHT22;30019;50.576;8.568;2023-04-30T15:06:58;19.60;80.30
44305;DHT22;30019;50.576;8.568;2023-04-30T15:09:23;19.60;81.50
44305;DHT22;30019;50.576;8.568;2023-04-30T15:11:49;19.90;80.90
44305;DHT22;30019;50.576;8.568;2023-04-30T15:14:15;19.70;82.40
44305;DHT22;30019;50.576;8.568;2023-04-30T15:16:41;20.10;78.70
44305;DHT22;30019;50.576;8.568;2023-04-30T15:19:07;20.20;77.10
44305;DHT22;30019;50.576;8.568;2023-04-30T15:21:32;20.00;77.60
44305;DHT22;30019;50.576;8.568;2023-04-30T15:23:58;20.30;78.80
44305;DHT22;30019;50.576;8.568;2023-04-30T15:26:23;20.30;76.60
44305;DHT22;30019;50.576;8.568;2023-04-30T15:28:50;20.10;81.50
44305;DHT22;30019;50.576;8.568;2023-04-30T15:31:15;19.80;80.10
44305;DHT22;30019;50.576;8.568;2023-04-30T15:33:41;20.10;81.90
44305;DHT22;30019;50.576;8.568;2023-04-30T15:36:06;19.60;78.30
44305;DHT22;30019;50.576;8.568;2023-04-30T15:38:32;18.60;79.20
44305;DHT22;30019;50.576;8.568;2023-04-30T15:40:58;18.20;82.30
44305;DHT22;30019;50.576;8.568;2023-04-30T15:43:23;18.60;82.90
44305;DHT22;30019;50.576;8.568;2023-04-30T15:45:49;19.20;88.20
44305;DHT22;30019;50.576;8.568;2023-04-30T15:48:14;20.00;79.90
44305;DHT22;30019;50.576;8.568;2023-04-30T15:50:40;20.40;79.90
44305;DHT22;30019;50.576;8.568;2023-04-30T15:53:05;20.70;78.10
44305;DHT22;30019;50.576;8.568;2023-04-30T15:55:31;20.70;77.00
44305;DHT22;30019;50.576;8.568;2023-04-30T15:57:56;20.20;78.00
44305;DHT22;30019;50.576;8.568;2023-04-30T16:00:22;19.20;80.00
44305;DHT22;30019;50.576;8.568;2023-04-30T16:02:48;18.90;82.10
44305;DHT22;30019;50.576;8.568;2023-04-30T16:05:13;18.60;83.80
44305;DHT22;30019;50.576;8.568;2023-04-30T16:07:39;18.30;82.40
44305;DHT22;30019;50.576;8.568;2023-04-30T16:10:05;18.30;83.70
44305;DHT22;30019;50.576;8.568;2023-04-30T16:12:31;18.40;85.20
44305;DHT22;30019;50.576;8.568;2023-04-30T16:14:58;18.50;81.00
44305;DHT22;30019;50.576;8.568;2023-04-30T16:17:24;18.60;82.80
44305;DHT22;30019;50.576;8.568;2023-04-30T16:19:49;18.60;82.30
44305;DHT22;30019;50.576;8.568;2023-04-30T16:22:15;18.50;85.30
44305;DHT22;30019;50.576;8.568;2023-04-30T16:24:41;18.40;83.70
44305;DHT22;30019;50.576;8.568;2023-04-30T16:27:07;18.30;82.50
44305;DHT22;30019;50.576;8.568;2023-04-30T16:29:32;18.20;81.40
44305;DHT22;30019;50.576;8.568;2023-04-30T16:31:58;17.90;81.30
44305;DHT22;30019;50.576;8.568;2023-04-30T16:34:23;17.80;82.60
44305;DHT22;30019;50.576;8.568;2023-04-30T16:36:49;17.70;84.20
44305;DHT22;30019;50.576;8.568;2023-04-30T16:39:14;17.60;84.30
44305;DHT22;30019;50.576;8.568;2023-04-30T16:41:40;17.50;85.00
44305;DHT22;30019;50.576;8.568;2023-04-30T16:44:06;17.50;84.70
44305;DHT22;30019;50.576;8.568;2023-04-30T16:46:32;17.50;83.40
44305;DHT22;30019;50.576;8.568;2023-04-30T16:48:57;17.50;82.80
44305;DHT22;30019;50.576;8.568;2023-04-30T16:51:23;17.40;85.80
44305;DHT22;30019;50.576;8.568;2023-04-30T16:53:48;17.40;85.60
44305;DHT22;30019;50.576;8.568;2023-04-30T16:56:14;17.50;86.30
44305;DHT22;30019;50.576;8.568;2023-04-30T16:58:39;17.40;87.30
44305;DHT22;30019;50.576;8.568;2023-04-30T17:01:05;17.20;86.30
44305;DHT22;30019;50.576;8.568;2023-04-30T17:03:30;17.20;89.30
44305;DHT22;30019;50.576;8.568;2023-04-30T17:05:58;17.20;87.50
44305;DHT22;30019;50.576;8.568;2023-04-30T17:08:24;17.30;87.50
44305;DHT22;30019;50.576;8.568;2023-04-30T17:10:50;17.20;88.80
44305;DHT22;30019;50.576;8.568;2023-04-30T17:13:15;17.10;89.10
44305;DHT22;30019;50.576;8.568;2023-04-30T17:15:41;17.00;90.00
44305;DHT22;30019;50.576;8.568;2023-04-30T17:18:07;17.00;90.20
44305;DHT22;30019;50.576;8.568;2023-04-30T17:20:34;16.90;89.60
44305;DHT22;30019;50.576;8.568;2023-04-30T17:23:00;16.80;89.50
44305;DHT22;30019;50.576;8.568;2023-04-30T17:25:26;16.80;90.20
44305;DHT22;30019;50.576;8.568;2023-04-30T17:27:59;16.90;90.30
44305;DHT22;30019;50.576;8.568;2023-04-30T17:30:27;16.80;90.70
44305;DHT22;30019;50.576;8.568;2023-04-30T17:32:53;16.70;90.90
44305;DHT22;30019;50.576;8.568;2023-04-30T17:35:18;16.60;91.00
44305;DHT22;30019;50.576;8.568;2023-04-30T17:37:44;16.50;90.70
44305;DHT22;30019;50.576;8.568;2023-04-30T17:40:09;16.50;90.60
44305;DHT22;30019;50.576;8.568;2023-04-30T17:42:35;16.50;92.10
44305;DHT22;30019;50.576;8.568;2023-04-30T17:45:01;16.40;91.00
44305;DHT22;30019;50.576;8.568;2023-04-30T17:47:26;16.30;91.00
44305;DHT22;30019;50.576;8.568;2023-04-30T17:49:51;16.30;90.90
44305;DHT22;30019;50.576;8.568;2023-04-30T17:52:17;16.20;91.60
44305;DHT22;30019;50.576;8.568;2023-04-30T17:54:43;16.10;91.20
44305;DHT22;30019;50.576;8.568;2023-04-30T17:57:08;16.00;92.00
44305;DHT22;30019;50.576;8.568;2023-04-30T17:59:34;16.00;91.50
44305;DHT22;30019;50.576;8.568;2023-04-30T18:01:59;15.90;91.80
44305;DHT22;30019;50.576;8.568;2023-04-30T18:04:25;15.80;91.60
44305;DHT22;30019;50.576;8.568;2023-04-30T18:06:50;15.80;91.70
44305;DHT22;30019;50.576;8.568;2023-04-30T18:09:16;15.80;92.20
44305;DHT22;30019;50.576;8.568;2023-04-30T18:11:42;15.70;92.20
44305;DHT22;30019;50.576;8.568;2023-04-30T18:14:08;15.70;92.20
44305;DHT22;30019;50.576;8.568;2023-04-30T18:16:34;15.60;91.90
44305;DHT22;30019;50.576;8.568;2023-04-30T18:18:59;15.60;92.20
44305;DHT22;30019;50.576;8.568;2023-04-30T18:21:25;15.40;92.50
44305;DHT22;30019;50.576;8.568;2023-04-30T18:23:51;15.40;92.00
44305;DHT22;30019;50.576;8.568;2023-04-30T18:26:20;15.40;93.30
44305;DHT22;30019;50.576;8.568;2023-04-30T18:28:46;15.30;92.90
44305;DHT22;30019;50.576;8.568;2023-04-30T18:31:11;15.20;92.60
44305;DHT22;30019;50.576;8.568;2023-04-30T18:33:37;15.00;92.80
44305;DHT22;30019;50.576;8.568;2023-04-30T18:36:02;15.00;93.50
44305;DHT22;30019;50.576;8.568;2023-04-30T18:38:30;14.90;93.50